Aviation Digital Data Service (ADDS)

Output produced by METARs form (1811 UTC 24 June 2018)
found at http://aviationweather.gov/adds/metars/
 
KHOU 241753Z 17011KT 10SM SCT038 BKN250 32/24 A2993 RMK AO2 SLP139 T03220244 10328 20256 51008